createdAt,value
2022-12-11T00:02:04.475Z,89.62
2022-12-11T00:07:06.453Z,88.92
2022-12-11T00:12:08.442Z,88.96
2022-12-11T00:17:11.826Z,88.72
2022-12-11T00:22:13.870Z,89.07
2022-12-11T00:27:15.897Z,88.79
2022-12-11T00:32:19.328Z,89.09
2022-12-11T00:37:21.401Z,89.48
2022-12-11T00:42:23.570Z,89.25
2022-12-11T00:47:26.849Z,89.47
2022-12-11T00:52:28.793Z,87.76
2022-12-11T00:57:30.741Z,87.68
2022-12-11T01:02:34.135Z,87.52
2022-12-11T01:07:36.185Z,87.37
2022-12-11T01:12:38.261Z,87.90
2022-12-11T01:17:41.509Z,88.09
2022-12-11T01:22:43.454Z,89.37
2022-12-11T01:27:45.407Z,89.04
2022-12-11T01:32:49.009Z,88.15
2022-12-11T01:37:50.946Z,87.53
2022-12-11T01:42:52.888Z,87.67
2022-12-11T01:48:01.978Z,87.73
2022-12-11T01:53:07.018Z,87.15
2022-12-11T01:58:10.739Z,87.10
2022-12-11T02:03:14.309Z,87.69
2022-12-11T02:08:16.686Z,88.67
2022-12-11T02:13:25.043Z,88.24
2022-12-11T02:18:33.806Z,88.03
2022-12-11T02:23:58.705Z,87.53
2022-12-11T02:29:05.051Z,87.45
2022-12-11T02:34:12.065Z,88.00
2022-12-11T02:39:16.630Z,87.52
2022-12-11T02:44:24.343Z,87.55
2022-12-11T02:49:28.114Z,87.03
2022-12-11T02:54:34.925Z,86.74
2022-12-11T02:59:40.934Z,86.69
2022-12-11T03:04:44.300Z,87.14
2022-12-11T03:09:48.043Z,87.92
2022-12-11T03:14:51.446Z,87.16
2022-12-11T03:20:04.711Z,87.50
2022-12-11T03:25:10.717Z,88.20
2022-12-11T03:30:17.845Z,87.65
2022-12-11T03:35:25.126Z,87.64
2022-12-11T03:40:30.878Z,87.82
2022-12-11T03:45:35.501Z,87.47
2022-12-11T03:50:38.569Z,87.26
2022-12-11T03:55:41.831Z,86.94
2022-12-11T04:00:45.202Z,87.14
2022-12-11T04:05:50.785Z,87.23
2022-12-11T04:11:11.666Z,86.75
2022-12-11T04:16:14.978Z,87.29
2022-12-11T04:21:39.404Z,87.32
2022-12-11T04:26:42.300Z,88.52
2022-12-11T04:31:45.907Z,88.46
2022-12-11T04:36:47.844Z,88.77
2022-12-11T04:41:49.830Z,88.05
2022-12-11T04:46:53.089Z,88.61
2022-12-11T04:51:55.030Z,87.82
2022-12-11T04:56:58.188Z,88.19
2022-12-11T05:02:01.470Z,87.95
2022-12-11T05:07:03.412Z,87.83
2022-12-11T05:12:05.499Z,88.54
2022-12-11T05:17:08.758Z,88.72
2022-12-11T05:22:10.676Z,88.10
2022-12-11T05:27:12.704Z,87.97
2022-12-11T05:32:16.019Z,87.40
2022-12-11T05:37:17.938Z,87.89
2022-12-11T05:42:22.877Z,88.20
2022-12-11T05:47:30.884Z,87.95
2022-12-11T05:52:33.148Z,88.30
2022-12-11T05:57:35.082Z,88.41
2022-12-11T06:02:38.413Z,87.81
2022-12-11T06:07:40.365Z,87.81
2022-12-11T06:12:42.347Z,88.55
2022-12-11T06:17:45.577Z,88.31
2022-12-11T06:22:47.699Z,89.22
2022-12-11T06:27:50.332Z,88.58
2022-12-11T06:32:53.614Z,89.17
2022-12-11T06:37:55.888Z,88.82
2022-12-11T06:42:57.789Z,88.66
2022-12-11T06:48:01.079Z,89.04
2022-12-11T06:53:03.013Z,88.95
2022-12-11T06:58:05.590Z,88.28
2022-12-11T07:03:10.024Z,88.26
2022-12-11T07:08:11.963Z,88.70
2022-12-11T07:13:13.966Z,89.23
2022-12-11T07:18:17.523Z,88.98
2022-12-11T07:23:19.647Z,88.90
2022-12-11T07:28:21.633Z,88.76
2022-12-11T07:33:24.912Z,88.49
2022-12-11T07:38:27.061Z,88.16
2022-12-11T07:43:29.605Z,88.09
2022-12-11T07:48:35.582Z,88.79
2022-12-11T07:53:37.664Z,88.27
2022-12-11T07:58:39.699Z,88.32
2022-12-11T08:03:43.739Z,88.68
2022-12-11T08:23:59.981Z,87.47
2022-12-11T08:29:02.644Z,87.41
2022-12-11T08:34:05.160Z,87.86
2022-12-11T08:39:10.501Z,88.10
2022-12-11T08:44:16.393Z,88.38
2022-12-11T08:49:19.253Z,87.31
2022-12-11T08:54:22.741Z,87.00
2022-12-11T08:59:25.672Z,87.17
2022-12-11T09:04:27.642Z,86.79
2022-12-11T09:09:30.964Z,87.18
2022-12-11T09:14:33.045Z,87.61
2022-12-11T09:19:34.977Z,86.94
2022-12-11T09:24:38.519Z,87.28
2022-12-11T09:29:40.748Z,87.70
2022-12-11T09:34:42.699Z,86.56
2022-12-11T09:39:46.483Z,87.71
2022-12-11T09:44:52.274Z,88.30
2022-12-11T09:50:03.015Z,88.47
2022-12-11T09:55:16.568Z,87.20
2022-12-11T10:00:24.639Z,86.87
2022-12-11T10:05:36.038Z,86.85
2022-12-11T10:10:43.688Z,86.50
2022-12-11T10:15:52.007Z,86.97
2022-12-11T10:20:54.901Z,87.17
2022-12-11T10:26:05.434Z,86.35
2022-12-11T10:31:16.208Z,86.59
2022-12-11T10:36:21.895Z,86.53
2022-12-11T10:41:36.949Z,86.12
2022-12-11T10:46:39.359Z,85.75
2022-12-11T10:51:41.834Z,85.90
2022-12-11T10:56:47.024Z,86.02
2022-12-11T11:01:49.088Z,85.95
2022-12-11T11:07:01.596Z,85.29
2022-12-11T11:12:16.968Z,85.36
2022-12-11T11:17:19.027Z,85.54
2022-12-11T11:22:21.295Z,85.88
2022-12-11T11:27:30.912Z,84.75
2022-12-11T11:32:36.815Z,85.50
2022-12-11T11:37:41.084Z,83.45
2022-12-11T11:42:49.325Z,82.85
2022-12-11T11:48:07.792Z,83.74
2022-12-11T11:53:20.240Z,85.02
2022-12-11T11:58:28.043Z,85.05
2022-12-11T12:03:30.280Z,85.70
2022-12-11T12:08:44.091Z,86.63
2022-12-11T12:13:56.164Z,86.12
2022-12-11T12:19:06.304Z,86.15
2022-12-11T12:24:19.130Z,85.90
2022-12-11T12:29:32.931Z,86.30
2022-12-11T12:34:47.782Z,86.34
2022-12-11T12:39:57.199Z,85.55
2022-12-11T12:45:08.816Z,85.40
2022-12-11T12:50:14.784Z,85.22
2022-12-11T12:55:22.984Z,85.06
2022-12-11T13:00:34.546Z,84.48
2022-12-11T13:05:36.538Z,86.62
2022-12-11T13:10:41.520Z,84.26
2022-12-11T13:15:44.867Z,84.79
2022-12-11T13:20:51.073Z,86.04
2022-12-11T13:25:54.872Z,85.76
2022-12-11T13:31:25.456Z,85.91
2022-12-11T13:36:31.402Z,85.88
2022-12-11T13:41:36.763Z,85.89
2022-12-11T13:46:40.200Z,85.71
2022-12-11T13:51:52.071Z,85.71
2022-12-11T13:57:03.372Z,86.22
2022-12-11T14:02:15.179Z,86.74
2022-12-11T14:07:25.057Z,86.82
2022-12-11T14:12:29.268Z,86.45
2022-12-11T14:17:35.219Z,86.71
2022-12-11T14:22:37.299Z,86.69
2022-12-11T14:27:47.999Z,87.50
2022-12-11T14:32:53.431Z,87.15
2022-12-11T14:37:57.441Z,87.94
2022-12-11T14:43:03.875Z,87.41
2022-12-11T14:48:12.036Z,88.33
2022-12-11T14:53:17.368Z,88.19
2022-12-11T14:58:22.355Z,87.28
2022-12-11T15:03:32.061Z,87.39
2022-12-11T15:08:36.893Z,87.34
2022-12-11T15:13:52.295Z,87.66
2022-12-11T15:18:56.606Z,88.16
2022-12-11T15:24:00.492Z,86.98
2022-12-11T15:29:04.108Z,88.00
2022-12-11T15:34:23.639Z,88.05
2022-12-11T15:39:25.819Z,88.34
2022-12-11T15:44:27.821Z,87.64
2022-12-11T15:49:31.091Z,87.01
2022-12-11T15:54:33.057Z,87.34
2022-12-11T15:59:35.598Z,87.13
2022-12-11T16:04:38.897Z,86.96
2022-12-11T16:09:40.858Z,87.23
2022-12-11T16:14:43.992Z,87.55
2022-12-11T16:19:47.282Z,87.15
2022-12-11T16:24:53.419Z,87.37
2022-12-11T16:29:55.615Z,88.27
2022-12-11T16:35:02.108Z,87.04
2022-12-11T16:40:06.579Z,86.79
2022-12-11T16:45:12.497Z,87.31
2022-12-11T16:50:16.732Z,86.33
2022-12-11T16:55:22.227Z,87.36
2022-12-11T17:00:24.317Z,86.39
2022-12-11T17:05:27.664Z,86.55
2022-12-11T17:10:29.665Z,86.38
2022-12-11T17:15:31.674Z,86.97
2022-12-11T17:20:35.113Z,86.26
2022-12-11T17:25:40.015Z,86.57
2022-12-11T17:30:43.374Z,86.43
2022-12-11T17:35:47.043Z,85.88
2022-12-11T17:40:49.124Z,86.87
2022-12-11T17:45:55.343Z,86.22
2022-12-11T17:51:02.968Z,85.92
2022-12-11T17:56:07.487Z,86.06
2022-12-11T18:01:11.549Z,86.20
2022-12-11T18:06:16.170Z,85.95
2022-12-11T18:11:19.184Z,86.00
2022-12-11T18:16:24.158Z,86.05
2022-12-11T18:21:32.462Z,85.46
2022-12-11T18:26:34.739Z,85.77
2022-12-11T18:31:42.205Z,85.27
2022-12-11T18:36:46.319Z,85.08
2022-12-11T18:42:03.418Z,85.58
2022-12-11T18:47:10.614Z,85.55
2022-12-11T18:52:14.610Z,85.03
2022-12-11T18:57:16.696Z,85.33
2022-12-11T19:02:19.084Z,85.17
2022-12-11T19:07:22.504Z,84.89
2022-12-11T19:12:24.701Z,85.67
2022-12-11T19:17:26.831Z,85.51
2022-12-11T19:22:30.234Z,85.81
2022-12-11T19:27:32.255Z,85.82
2022-12-11T19:32:36.347Z,84.28
2022-12-11T19:37:39.820Z,84.31
2022-12-11T19:42:42.380Z,83.65
2022-12-11T19:47:44.476Z,85.05
2022-12-11T19:52:47.824Z,85.17
2022-12-11T19:57:50.044Z,85.20
2022-12-11T20:02:52.196Z,85.07
2022-12-11T20:07:57.505Z,85.10
2022-12-11T20:13:07.709Z,85.01
2022-12-11T20:18:12.781Z,85.17
2022-12-11T20:23:20.448Z,85.38
2022-12-11T20:28:22.981Z,85.08
2022-12-11T20:33:24.922Z,84.51
2022-12-11T20:38:34.131Z,85.36
2022-12-11T20:43:37.224Z,84.22
2022-12-11T20:48:40.813Z,84.75
2022-12-11T20:53:44.431Z,84.80
2022-12-11T20:58:46.530Z,85.58
2022-12-11T21:03:49.102Z,84.74
2022-12-11T21:08:52.993Z,85.13
2022-12-11T21:13:55.126Z,84.95
2022-12-11T21:18:58.105Z,84.63
2022-12-11T21:24:01.684Z,84.56
2022-12-11T21:29:03.726Z,85.05
2022-12-11T21:34:06.580Z,85.04
2022-12-11T21:39:11.853Z,85.03
2022-12-11T21:45:25.815Z,85.88
2022-12-11T21:49:36.826Z,85.52
2022-12-11T21:54:40.595Z,85.73
2022-12-11T21:59:42.513Z,85.55
2022-12-11T22:04:47.368Z,85.17
2022-12-11T22:09:50.659Z,85.20
2022-12-11T22:14:52.651Z,85.10
2022-12-11T22:19:54.641Z,85.00
2022-12-11T22:24:57.984Z,85.38
2022-12-11T22:29:59.983Z,84.88
2022-12-11T22:35:01.948Z,85.43
2022-12-11T22:40:06.324Z,85.52
2022-12-11T22:45:09.928Z,85.03
2022-12-11T22:50:13.347Z,85.66
2022-12-11T22:55:16.760Z,85.81
2022-12-11T23:00:18.763Z,85.95
2022-12-11T23:05:20.790Z,85.84
2022-12-11T23:10:24.583Z,85.50
2022-12-11T23:15:26.625Z,85.73
2022-12-11T23:20:28.877Z,85.00
2022-12-11T23:25:32.307Z,85.00
2022-12-11T23:30:34.413Z,84.55
2022-12-11T23:35:36.513Z,84.27
2022-12-11T23:40:39.772Z,85.49
2022-12-11T23:45:43.426Z,84.58
2022-12-11T23:50:45.726Z,84.73
2022-12-11T23:55:48.984Z,85.10
